createdAt,value
2024-03-02T00:01:46.992Z,42.50
2024-03-02T00:04:14.820Z,44.88
2024-03-02T00:06:42.686Z,43.55
2024-03-02T00:09:13.482Z,43.80
2024-03-02T00:11:41.589Z,41.65
2024-03-02T00:14:10.837Z,45.63
2024-03-02T00:16:39.157Z,46.85
2024-03-02T00:19:09.201Z,39.55
2024-03-02T00:21:37.328Z,42.92
2024-03-02T00:24:19.782Z,52.50
2024-03-02T00:26:47.718Z,50.53
2024-03-02T00:29:19.309Z,43.72
2024-03-02T00:31:47.348Z,36.40
2024-03-02T00:34:17.396Z,36.10
2024-03-02T00:36:46.603Z,39.55
2024-03-02T00:39:17.220Z,42.65
2024-03-02T00:41:45.393Z,37.70
2024-03-02T00:44:14.998Z,43.95
2024-03-02T00:46:45.711Z,40.97
2024-03-02T00:49:25.559Z,33.97
2024-03-02T00:51:55.020Z,37.22
2024-03-02T00:54:25.549Z,33.03
2024-03-02T00:56:56.184Z,34.45
2024-03-02T00:59:25.284Z,37.17
2024-03-02T01:01:55.138Z,39.90
2024-03-02T01:04:23.066Z,41.20
2024-03-02T01:06:50.965Z,39.00
2024-03-02T01:09:19.085Z,40.30
2024-03-02T01:11:47.521Z,42.78
2024-03-02T01:14:15.442Z,42.33
2024-03-02T01:16:43.401Z,42.58
2024-03-02T01:19:12.815Z,47.50
2024-03-02T01:21:40.770Z,47.75
2024-03-02T01:24:08.628Z,43.80
2024-03-02T01:26:36.416Z,42.63
2024-03-02T01:29:04.264Z,50.30
2024-03-02T01:31:32.065Z,41.25
2024-03-02T01:33:59.928Z,43.20
2024-03-02T01:36:29.221Z,40.92
2024-03-02T01:38:57.043Z,40.78
2024-03-02T01:41:24.918Z,39.65
2024-03-02T01:43:52.726Z,40.13
2024-03-02T01:46:20.596Z,40.47
2024-03-02T01:48:49.035Z,37.80
2024-03-02T01:51:16.975Z,38.30
2024-03-02T01:53:46.168Z,42.50
2024-03-02T01:56:13.999Z,46.15
2024-03-02T01:58:41.804Z,40.30
2024-03-02T02:01:11.257Z,45.10
2024-03-02T02:03:39.496Z,47.15
2024-03-02T02:06:08.212Z,37.55
2024-03-02T02:08:36.038Z,50.95
2024-03-02T02:11:05.604Z,40.28
2024-03-02T02:13:33.535Z,46.00
2024-03-02T02:16:07.050Z,44.17
2024-03-02T02:18:35.084Z,51.00
2024-03-02T02:21:02.920Z,44.55
2024-03-02T02:23:32.084Z,46.33
2024-03-02T02:25:59.936Z,47.58
2024-03-02T02:28:27.817Z,47.78
2024-03-02T02:30:58.061Z,49.03
2024-03-02T02:33:26.065Z,45.65
2024-03-02T02:35:54.130Z,42.60
2024-03-02T02:38:22.061Z,45.03
2024-03-02T02:40:51.232Z,44.67
2024-03-02T02:43:19.111Z,42.15
2024-03-02T02:45:47.093Z,45.97
2024-03-02T02:48:15.022Z,40.03
2024-03-02T02:50:43.867Z,45.38
2024-03-02T02:53:11.677Z,44.13
2024-03-02T02:55:41.867Z,43.35
2024-03-02T02:58:11.104Z,39.17
2024-03-02T03:00:38.994Z,38.33
2024-03-02T03:03:06.881Z,38.30
2024-03-02T03:05:33.744Z,45.28
2024-03-02T03:08:01.536Z,37.42
2024-03-02T03:10:29.442Z,36.28
2024-03-02T03:12:57.901Z,42.65
2024-03-02T03:15:27.545Z,37.17
2024-03-02T03:17:55.612Z,42.10
2024-03-02T03:20:24.640Z,41.20
2024-03-02T03:22:52.508Z,37.63
2024-03-02T03:25:20.330Z,42.60
2024-03-02T03:27:48.161Z,38.30
2024-03-02T03:30:16.772Z,36.55
2024-03-02T03:32:46.211Z,37.45
2024-03-02T03:35:15.769Z,32.65
2024-03-02T03:37:43.617Z,35.40
2024-03-02T03:40:12.456Z,36.30
2024-03-02T03:42:41.068Z,38.08
2024-03-02T03:45:09.815Z,40.80
2024-03-02T03:47:37.726Z,35.00
2024-03-02T03:50:08.500Z,31.65
2024-03-02T03:52:36.744Z,34.55
2024-03-02T03:55:06.611Z,35.38
2024-03-02T03:57:34.743Z,36.55
2024-03-02T04:00:02.586Z,36.92
2024-03-02T04:02:39.980Z,40.45
2024-03-02T04:05:12.157Z,37.58
2024-03-02T04:07:41.428Z,38.80
2024-03-02T04:10:10.658Z,37.92
2024-03-02T04:12:39.070Z,34.13
2024-03-02T04:15:07.985Z,33.72
2024-03-02T04:17:37.137Z,34.05
2024-03-02T04:20:06.709Z,31.95
2024-03-02T04:22:36.923Z,31.90
2024-03-02T04:25:06.453Z,38.85
2024-03-02T04:27:34.730Z,35.50
2024-03-02T04:30:02.834Z,32.33
2024-03-02T04:32:30.964Z,37.25
2024-03-02T04:34:58.873Z,38.88
2024-03-02T04:37:26.695Z,28.23
2024-03-02T04:39:56.052Z,36.90
2024-03-02T04:42:24.025Z,35.05
2024-03-02T04:44:51.893Z,31.15
2024-03-02T04:47:19.707Z,31.58
2024-03-02T04:49:47.645Z,33.97
2024-03-02T04:52:15.527Z,37.30
2024-03-02T04:54:57.368Z,33.85
2024-03-02T04:57:26.595Z,31.70
2024-03-02T04:59:54.470Z,33.80
2024-03-02T05:02:22.300Z,34.40
2024-03-02T05:04:50.139Z,40.63
2024-03-02T05:07:18.098Z,31.65
2024-03-02T05:09:45.938Z,29.98
2024-03-02T05:12:41.639Z,34.83
2024-03-02T05:15:11.854Z,37.95
2024-03-02T05:17:39.924Z,33.13
2024-03-02T05:20:09.686Z,34.53
2024-03-02T05:22:37.735Z,35.92
2024-03-02T05:25:06.788Z,30.30
2024-03-02T05:27:34.931Z,36.60
2024-03-02T05:30:03.165Z,34.58
2024-03-02T05:32:32.286Z,35.00
2024-03-02T05:35:00.114Z,35.40
2024-03-02T05:37:27.942Z,36.05
2024-03-02T05:39:55.871Z,34.60
2024-03-02T05:42:23.724Z,36.15
2024-03-02T05:44:51.537Z,35.10
2024-03-02T05:47:19.806Z,38.25
2024-03-02T05:49:48.972Z,38.25
2024-03-02T05:52:16.786Z,33.00
2024-03-02T05:54:44.623Z,40.15
2024-03-02T05:57:33.019Z,39.05
2024-03-02T06:00:01.051Z,39.45
2024-03-02T06:02:27.900Z,37.42
2024-03-02T06:04:58.358Z,31.83
2024-03-02T06:07:26.162Z,40.00
2024-03-02T06:09:54.453Z,40.10
2024-03-02T06:12:22.333Z,39.20
2024-03-02T06:14:50.138Z,39.72
2024-03-02T06:17:17.964Z,37.83
2024-03-02T06:19:45.752Z,34.53
2024-03-02T06:22:14.898Z,37.97
2024-03-02T06:24:43.288Z,33.83
2024-03-02T06:27:11.145Z,39.45
2024-03-02T06:29:38.960Z,33.20
2024-03-02T06:32:07.225Z,39.13
2024-03-02T06:34:35.043Z,42.33
2024-03-02T06:37:03.521Z,44.22
2024-03-02T06:39:35.137Z,44.90
2024-03-02T06:42:03.032Z,45.78
2024-03-02T06:44:30.848Z,42.60
2024-03-02T06:46:58.646Z,43.75
2024-03-02T06:49:26.478Z,46.83
2024-03-02T06:51:54.470Z,42.63
2024-03-02T06:54:22.357Z,42.88
2024-03-02T06:56:51.568Z,38.97
2024-03-02T06:59:19.394Z,43.33
2024-03-02T07:01:47.250Z,37.90
2024-03-02T07:04:15.075Z,43.33
2024-03-02T07:06:42.900Z,41.65
2024-03-02T07:09:12.066Z,34.45
2024-03-02T07:11:39.954Z,40.63
2024-03-02T07:14:09.153Z,38.40
2024-03-02T07:16:39.527Z,43.83
2024-03-02T07:19:07.843Z,42.83
2024-03-02T07:21:35.837Z,35.33
2024-03-02T07:24:04.045Z,38.50
2024-03-02T07:29:03.707Z,36.90
2024-03-02T07:31:32.883Z,37.13
2024-03-02T07:34:00.700Z,36.28
2024-03-02T07:36:28.598Z,41.67
2024-03-02T07:38:56.465Z,35.95
2024-03-02T07:41:24.305Z,44.80
2024-03-02T07:43:52.137Z,34.33
2024-03-02T07:46:19.956Z,42.50
2024-03-02T07:48:49.165Z,43.78
2024-03-02T07:51:17.985Z,41.03
2024-03-02T07:53:47.272Z,45.67
2024-03-02T07:56:22.578Z,44.13
2024-03-02T07:58:50.900Z,49.83
2024-03-02T08:01:19.374Z,44.08
2024-03-02T08:03:51.167Z,53.20
2024-03-02T08:06:21.748Z,45.40
2024-03-02T08:08:49.768Z,52.28
2024-03-02T08:11:17.661Z,47.42
2024-03-02T08:13:45.497Z,43.85
2024-03-02T08:16:13.312Z,52.10
2024-03-02T08:18:41.525Z,45.92
2024-03-02T08:21:10.819Z,47.08
2024-03-02T08:23:41.353Z,44.88
2024-03-02T08:26:10.010Z,44.65
2024-03-02T08:28:38.713Z,46.78
2024-03-02T08:31:06.536Z,41.60
2024-03-02T08:33:34.820Z,42.50
2024-03-02T08:36:05.682Z,49.90
2024-03-02T08:38:35.521Z,40.47
2024-03-02T08:41:04.681Z,41.42
2024-03-02T08:43:32.821Z,46.03
2024-03-02T08:46:00.953Z,49.65
2024-03-02T08:48:28.828Z,41.97
2024-03-02T08:50:56.710Z,45.67
2024-03-02T08:53:24.558Z,38.05
2024-03-02T08:55:53.907Z,40.72
2024-03-02T08:58:22.183Z,41.25
2024-03-02T09:00:50.376Z,42.97
2024-03-02T09:03:18.848Z,36.30
2024-03-02T09:05:47.287Z,42.78
2024-03-02T09:08:15.113Z,35.03
2024-03-02T09:10:42.922Z,34.75
2024-03-02T09:13:12.628Z,36.67
2024-03-02T09:15:41.019Z,35.70
2024-03-02T09:18:09.117Z,37.08
2024-03-02T09:20:37.198Z,39.13
2024-03-02T09:23:05.379Z,37.42
2024-03-02T09:25:33.169Z,37.00
2024-03-02T09:28:01.091Z,32.22
2024-03-02T09:30:30.585Z,33.92
2024-03-02T09:35:29.172Z,36.60
2024-03-02T09:37:58.030Z,32.42
2024-03-02T09:40:26.328Z,33.83
2024-03-02T09:42:54.763Z,34.92
2024-03-02T09:45:25.674Z,34.15
2024-03-02T09:47:54.934Z,29.83
2024-03-02T09:50:23.435Z,31.70
2024-03-02T09:52:51.799Z,30.58
2024-03-02T09:55:20.648Z,33.75
2024-03-02T09:57:49.673Z,30.52
2024-03-02T10:00:18.844Z,32.10
2024-03-02T10:02:50.104Z,28.02
2024-03-02T10:05:28.428Z,28.00
2024-03-02T10:08:03.937Z,26.23
2024-03-02T10:10:41.211Z,24.95
2024-03-02T10:13:10.878Z,25.92
2024-03-02T10:15:41.720Z,24.58
2024-03-02T10:18:12.640Z,29.17
2024-03-02T10:20:42.760Z,21.45
2024-03-02T10:23:14.307Z,24.15
2024-03-02T10:25:51.224Z,22.00
2024-03-02T10:28:23.188Z,22.77
2024-03-02T10:30:52.918Z,24.98
2024-03-02T10:33:21.109Z,18.77
2024-03-02T10:35:52.134Z,22.27
2024-03-02T10:38:20.151Z,22.60
2024-03-02T10:40:49.646Z,22.42
2024-03-02T10:43:18.033Z,20.35
2024-03-02T10:45:49.497Z,21.27
2024-03-02T10:48:17.853Z,22.35
2024-03-02T10:50:45.818Z,19.55
2024-03-02T10:53:15.216Z,18.90
2024-03-02T10:55:43.190Z,20.10
2024-03-02T10:58:14.738Z,20.08
2024-03-02T11:00:44.835Z,21.65
2024-03-02T11:03:14.328Z,18.45
2024-03-02T11:05:46.152Z,19.73
2024-03-02T11:08:18.794Z,17.77
2024-03-02T11:10:53.318Z,15.52
2024-03-02T11:13:25.369Z,21.88
2024-03-02T11:15:57.749Z,18.63
2024-03-02T11:18:26.270Z,19.67
2024-03-02T11:20:55.800Z,18.48
2024-03-02T11:23:34.777Z,16.05
2024-03-02T11:26:20.366Z,18.10
2024-03-02T11:28:49.857Z,18.08
2024-03-02T11:31:17.688Z,19.55
2024-03-02T11:33:45.653Z,19.23
2024-03-02T11:36:13.576Z,19.10
2024-03-02T11:38:46.581Z,16.13
2024-03-02T11:41:15.565Z,18.30
2024-03-02T11:43:45.381Z,14.95
2024-03-02T11:46:14.357Z,14.90
2024-03-02T11:48:42.560Z,16.00
2024-03-02T11:51:10.543Z,17.52
2024-03-02T11:53:44.004Z,15.75
2024-03-02T11:56:12.969Z,15.85
2024-03-02T11:58:42.517Z,15.77
2024-03-02T12:01:10.763Z,13.57
2024-03-02T12:03:38.759Z,16.40
2024-03-02T12:06:08.152Z,16.98
2024-03-02T12:08:36.765Z,13.70
2024-03-02T12:11:07.659Z,14.18
2024-03-02T12:13:35.683Z,12.68
2024-03-02T12:16:03.737Z,14.00
2024-03-02T12:18:31.622Z,15.18
2024-03-02T12:20:59.697Z,12.63
2024-03-02T12:23:28.009Z,14.88
2024-03-02T12:25:56.122Z,14.50
2024-03-02T12:28:25.748Z,12.00
2024-03-02T12:30:53.861Z,14.20
2024-03-02T12:33:22.319Z,14.10
2024-03-02T12:35:51.411Z,11.63
2024-03-02T12:38:20.623Z,12.02
2024-03-02T12:40:50.196Z,13.98
2024-03-02T12:43:18.000Z,11.52
2024-03-02T12:45:47.503Z,12.57
2024-03-02T12:48:15.833Z,16.05
2024-03-02T12:50:45.286Z,10.93
2024-03-02T12:53:17.424Z,11.55
2024-03-02T12:55:46.048Z,13.00
2024-03-02T12:58:19.216Z,9.88
2024-03-02T13:00:48.595Z,13.73
2024-03-02T13:03:19.241Z,12.27
2024-03-02T13:05:50.822Z,12.48
2024-03-02T13:08:18.829Z,8.80
2024-03-02T13:10:46.876Z,10.25
2024-03-02T13:13:15.954Z,10.20
2024-03-02T13:15:44.308Z,10.05
2024-03-02T13:18:13.715Z,7.63
2024-03-02T13:20:42.395Z,7.05
2024-03-02T13:23:11.323Z,8.30
2024-03-02T13:25:39.161Z,8.70
2024-03-02T13:28:08.301Z,7.95
2024-03-02T13:30:36.305Z,7.63
2024-03-02T13:33:04.236Z,7.47
2024-03-02T13:35:33.441Z,7.90
2024-03-02T13:38:01.252Z,5.78
2024-03-02T13:40:30.210Z,5.50
2024-03-02T13:42:58.122Z,5.47
2024-03-02T13:45:26.193Z,4.05
2024-03-02T13:47:56.660Z,5.95
2024-03-02T13:50:24.459Z,4.47
2024-03-02T13:52:53.605Z,4.03
2024-03-02T13:55:21.242Z,4.72
2024-03-02T13:57:49.941Z,4.20
2024-03-02T14:00:20.021Z,3.15
2024-03-02T14:02:50.626Z,2.00
2024-03-02T14:05:18.853Z,5.22
2024-03-02T14:07:46.692Z,4.50
2024-03-02T14:10:17.005Z,3.45
2024-03-02T14:12:44.964Z,4.03
2024-03-02T14:15:13.135Z,4.20
2024-03-02T14:17:41.041Z,6.07
2024-03-02T14:20:11.497Z,5.43
2024-03-02T14:22:39.406Z,6.90
2024-03-02T14:25:07.968Z,7.07
2024-03-02T14:27:51.069Z,3.42
2024-03-02T14:30:25.600Z,4.38
2024-03-02T14:32:53.508Z,2.85
2024-03-02T14:35:23.688Z,2.63
2024-03-02T14:37:51.671Z,5.70
2024-03-02T14:40:19.573Z,6.28
2024-03-02T14:42:49.525Z,4.03
2024-03-02T14:45:17.507Z,3.90
2024-03-02T14:47:45.672Z,5.43
2024-03-02T14:50:13.956Z,3.08
2024-03-02T14:52:43.696Z,4.15
2024-03-02T14:55:13.046Z,3.38
2024-03-02T14:57:40.950Z,3.35
2024-03-02T15:00:12.807Z,5.55
2024-03-02T15:02:40.810Z,3.60
2024-03-02T15:05:09.734Z,5.15
2024-03-02T15:07:37.553Z,3.97
2024-03-02T15:10:06.472Z,6.00
2024-03-02T15:12:34.415Z,6.13
2024-03-02T15:15:02.356Z,4.25
2024-03-02T15:17:32.089Z,5.47
2024-03-02T15:19:59.954Z,8.82
2024-03-02T15:22:27.757Z,5.38
2024-03-02T15:24:55.691Z,9.15
2024-03-02T15:27:23.622Z,5.47
2024-03-02T15:29:53.243Z,5.75
2024-03-02T15:32:21.103Z,4.50
2024-03-02T15:34:50.439Z,16.45
2024-03-02T15:37:18.507Z,22.35
2024-03-02T15:39:46.356Z,23.73
2024-03-02T15:42:14.241Z,13.55
2024-03-02T15:44:44.101Z,9.48
2024-03-02T15:47:13.074Z,30.00
2024-03-02T15:49:40.923Z,21.15
2024-03-02T15:52:10.577Z,12.82
2024-03-02T15:54:38.493Z,12.15
2024-03-02T15:57:06.686Z,11.38
2024-03-02T15:59:34.733Z,13.98
2024-03-02T16:02:02.582Z,11.77
2024-03-02T16:04:30.416Z,11.52
2024-03-02T16:06:58.233Z,58.38
2024-03-02T16:09:27.586Z,119.40
2024-03-02T16:11:55.455Z,46.28
2024-03-02T16:14:23.325Z,266.73
2024-03-02T16:16:51.160Z,312.60
2024-03-02T16:19:29.033Z,44.88
2024-03-02T16:22:00.719Z,41.75
2024-03-02T16:24:30.155Z,29.40
2024-03-02T16:26:58.000Z,23.88
2024-03-02T16:29:25.841Z,16.15
2024-03-02T16:31:53.705Z,21.38
2024-03-02T16:34:21.701Z,18.67
2024-03-02T16:36:49.554Z,17.35
2024-03-02T16:39:17.399Z,19.00
2024-03-02T16:41:48.022Z,32.63
2024-03-02T16:44:16.129Z,29.15
2024-03-02T16:46:45.959Z,63.90
2024-03-02T16:49:13.916Z,53.58
2024-03-02T16:51:41.918Z,53.67
2024-03-02T16:54:09.851Z,88.78
2024-03-02T16:56:41.615Z,58.65
2024-03-02T16:59:11.069Z,79.80
2024-03-02T17:01:39.439Z,100.60
2024-03-02T17:04:08.263Z,50.45
2024-03-02T17:06:36.523Z,58.70
2024-03-02T17:09:04.673Z,57.13
2024-03-02T17:11:32.987Z,34.08
2024-03-02T17:14:01.015Z,23.83
2024-03-02T17:16:30.331Z,16.20
2024-03-02T17:18:58.175Z,20.55
2024-03-02T17:21:26.292Z,18.15
2024-03-02T17:23:54.346Z,17.83
2024-03-02T17:26:22.138Z,16.30
2024-03-02T17:28:49.973Z,17.33
2024-03-02T17:31:17.874Z,17.25
2024-03-02T17:33:47.130Z,17.60
2024-03-02T17:36:15.482Z,16.13
2024-03-02T17:38:43.631Z,15.50
2024-03-02T17:41:11.702Z,19.45
2024-03-02T17:43:40.379Z,15.52
2024-03-02T17:46:08.482Z,15.20
2024-03-02T17:48:36.445Z,15.10
2024-03-02T17:51:08.445Z,13.02
2024-03-02T17:53:36.257Z,15.98
2024-03-02T17:56:04.479Z,13.07
2024-03-02T17:58:33.546Z,15.57
2024-03-02T18:01:01.623Z,20.83
2024-03-02T18:03:29.758Z,14.40
2024-03-02T18:05:57.741Z,15.98
2024-03-02T18:08:27.002Z,13.25
2024-03-02T18:10:54.875Z,24.65
2024-03-02T18:13:22.688Z,67.45
2024-03-02T18:15:51.787Z,49.33
2024-03-02T18:18:19.902Z,30.42
2024-03-02T18:20:47.734Z,33.75
2024-03-02T18:23:15.586Z,25.80
2024-03-02T18:25:48.188Z,26.77
2024-03-02T18:30:44.179Z,26.63
2024-03-02T18:33:12.146Z,21.75
2024-03-02T18:35:40.000Z,20.73
2024-03-02T18:38:07.863Z,36.15
2024-03-02T18:40:35.711Z,30.10
2024-03-02T18:43:05.568Z,19.60
2024-03-02T18:45:33.662Z,52.53
2024-03-02T18:48:04.002Z,37.95
2024-03-02T18:50:33.952Z,25.48
2024-03-02T18:53:01.814Z,26.33
2024-03-02T18:55:29.640Z,18.90
2024-03-02T18:57:58.288Z,17.45
2024-03-02T19:00:27.845Z,16.40
2024-03-02T19:02:55.752Z,12.88
2024-03-02T19:05:23.590Z,13.30
2024-03-02T19:07:51.416Z,14.10
2024-03-02T19:10:19.298Z,14.57
2024-03-02T19:12:48.673Z,16.13
2024-03-02T19:15:17.071Z,36.22
2024-03-02T19:17:46.492Z,41.67
2024-03-02T19:20:15.337Z,30.02
2024-03-02T19:22:43.202Z,16.13
2024-03-02T19:25:12.485Z,17.27
2024-03-02T19:27:40.700Z,17.13
2024-03-02T19:30:10.015Z,16.02
2024-03-02T19:32:37.991Z,16.65
2024-03-02T19:35:08.570Z,19.88
2024-03-02T19:37:37.140Z,17.42
2024-03-02T19:40:07.024Z,14.00
2024-03-02T19:42:35.889Z,17.00
2024-03-02T19:45:06.159Z,15.02
2024-03-02T19:47:34.469Z,13.68
2024-03-02T19:50:02.371Z,17.42
2024-03-02T19:52:31.651Z,15.00
2024-03-02T19:54:59.488Z,9.68
2024-03-02T19:57:29.574Z,16.92
2024-03-02T19:59:57.491Z,14.68
2024-03-02T20:02:28.016Z,13.27
2024-03-02T20:04:56.009Z,15.02
2024-03-02T20:07:23.814Z,10.95
2024-03-02T20:09:54.314Z,13.85
2024-03-02T20:12:22.315Z,13.30
2024-03-02T20:14:50.303Z,14.30
2024-03-02T20:17:18.191Z,14.77
2024-03-02T20:19:46.269Z,14.63
2024-03-02T20:22:14.755Z,18.13
2024-03-02T20:24:43.775Z,16.38
2024-03-02T20:27:13.631Z,13.30
2024-03-02T20:29:41.500Z,14.30
2024-03-02T20:32:09.404Z,16.35
2024-03-02T20:34:37.245Z,15.23
2024-03-02T20:37:05.451Z,14.63
2024-03-02T20:39:33.388Z,13.18
2024-03-02T20:42:01.683Z,15.10
2024-03-02T20:44:30.907Z,14.93
2024-03-02T20:46:58.786Z,13.60
2024-03-02T20:49:27.193Z,12.77
2024-03-02T20:51:55.094Z,13.07
2024-03-02T20:54:22.927Z,14.23
2024-03-02T20:56:52.844Z,13.88
2024-03-02T20:59:20.707Z,17.80
2024-03-02T21:01:50.626Z,11.95
2024-03-02T21:04:18.627Z,16.17
2024-03-02T21:06:46.762Z,16.08
2024-03-02T21:09:14.699Z,11.55
2024-03-02T21:11:45.282Z,13.43
2024-03-02T21:14:13.279Z,13.05
2024-03-02T21:16:41.620Z,11.18
2024-03-02T21:19:12.823Z,14.75
2024-03-02T21:21:43.502Z,14.10
2024-03-02T21:24:11.456Z,19.10
2024-03-02T21:26:40.294Z,16.97
2024-03-02T21:29:08.119Z,13.88
2024-03-02T21:31:36.174Z,15.77
2024-03-02T21:34:05.069Z,14.65
2024-03-02T21:36:34.880Z,15.88
2024-03-02T21:39:05.414Z,15.57
2024-03-02T21:41:33.769Z,15.77
2024-03-02T21:44:01.689Z,16.25
2024-03-02T21:46:29.504Z,13.57
2024-03-02T21:48:57.350Z,15.75
2024-03-02T21:51:25.423Z,14.23
2024-03-02T21:53:55.582Z,17.73
2024-03-02T21:56:23.397Z,17.17
2024-03-02T21:58:52.011Z,16.08
2024-03-02T22:01:20.142Z,15.13
2024-03-02T22:03:48.134Z,14.02
2024-03-02T22:06:16.608Z,13.00
2024-03-02T22:08:44.419Z,13.23
2024-03-02T22:11:13.894Z,13.05
2024-03-02T22:13:41.848Z,17.17
2024-03-02T22:16:09.962Z,15.98
2024-03-02T22:18:38.080Z,12.25
2024-03-02T22:21:06.238Z,16.60
2024-03-02T22:23:34.086Z,15.48
2024-03-02T22:26:02.092Z,14.45
2024-03-02T22:28:31.302Z,15.93
2024-03-02T22:30:59.188Z,18.77
2024-03-02T22:33:27.087Z,13.63
2024-03-02T22:35:54.962Z,17.75
2024-03-02T22:38:22.824Z,17.35
2024-03-02T22:40:50.683Z,16.17
2024-03-02T22:43:18.617Z,13.15
2024-03-02T22:45:48.414Z,19.65
2024-03-02T22:48:16.389Z,16.08
2024-03-02T22:50:44.443Z,14.98
2024-03-02T22:53:12.385Z,16.98
2024-03-02T22:55:40.310Z,14.32
2024-03-02T22:58:08.817Z,16.95
2024-03-02T23:00:38.254Z,20.13
2024-03-02T23:06:35.914Z,15.88
2024-03-02T23:09:04.666Z,20.70
2024-03-02T23:11:32.775Z,14.77
2024-03-02T23:14:00.649Z,14.10
2024-03-02T23:16:30.064Z,18.15
2024-03-02T23:18:58.099Z,17.50
2024-03-02T23:21:26.008Z,13.95
2024-03-02T23:23:55.211Z,12.93
2024-03-02T23:26:23.835Z,17.58
2024-03-02T23:28:51.656Z,15.10
2024-03-02T23:31:19.670Z,19.17
2024-03-02T23:33:49.295Z,17.77
2024-03-02T23:36:17.356Z,19.23
2024-03-02T23:38:45.192Z,20.77
2024-03-02T23:41:15.924Z,18.77
2024-03-02T23:43:43.828Z,18.25
2024-03-02T23:46:12.347Z,20.02
2024-03-02T23:48:40.630Z,16.80
2024-03-02T23:51:08.758Z,19.45
2024-03-02T23:53:36.637Z,19.85
2024-03-02T23:56:12.383Z,16.52
2024-03-02T23:58:40.896Z,18.17
